sensor_id;sensor_type;location;lat;lon;timestamp;P1;durP1;ratioP1;P2;durP2;ratioP2
42760;SDS011;31672;47.638;19.026;2023-02-22T00:08:28;4.60;;;2.93;;
42760;SDS011;31672;47.638;19.026;2023-02-22T00:13:37;4.17;;;2.70;;
42760;SDS011;31672;47.638;19.026;2023-02-22T00:18:40;5.23;;;2.83;;
42760;SDS011;31672;47.638;19.026;2023-02-22T00:23:45;4.23;;;3.10;;
42760;SDS011;31672;47.638;19.026;2023-02-22T00:28:51;8.40;;;3.90;;
42760;SDS011;31672;47.638;19.026;2023-02-22T00:33:55;6.60;;;3.17;;
42760;SDS011;31672;47.638;19.026;2023-02-22T00:38:58;3.70;;;2.70;;
42760;SDS011;31672;47.638;19.026;2023-02-22T00:44:01;4.90;;;2.83;;
42760;SDS011;31672;47.638;19.026;2023-02-22T00:49:04;4.73;;;3.03;;
42760;SDS011;31672;47.638;19.026;2023-02-22T00:54:08;5.13;;;2.63;;
42760;SDS011;31672;47.638;19.026;2023-02-22T00:59:11;5.40;;;3.37;;
42760;SDS011;31672;47.638;19.026;2023-02-22T01:04:14;4.93;;;2.97;;
42760;SDS011;31672;47.638;19.026;2023-02-22T01:09:20;5.07;;;3.20;;
42760;SDS011;31672;47.638;19.026;2023-02-22T01:14:24;6.67;;;3.30;;
42760;SDS011;31672;47.638;19.026;2023-02-22T01:19:29;4.07;;;3.00;;
42760;SDS011;31672;47.638;19.026;2023-02-22T01:24:33;5.23;;;3.57;;
42760;SDS011;31672;47.638;19.026;2023-02-22T01:29:36;5.43;;;3.10;;
42760;SDS011;31672;47.638;19.026;2023-02-22T01:34:40;4.20;;;3.30;;
42760;SDS011;31672;47.638;19.026;2023-02-22T01:39:43;4.63;;;3.30;;
42760;SDS011;31672;47.638;19.026;2023-02-22T01:45:19;5.23;;;3.27;;
42760;SDS011;31672;47.638;19.026;2023-02-22T01:50:33;6.30;;;3.70;;
42760;SDS011;31672;47.638;19.026;2023-02-22T01:55:40;5.63;;;3.40;;
42760;SDS011;31672;47.638;19.026;2023-02-22T02:00:45;4.67;;;3.13;;
42760;SDS011;31672;47.638;19.026;2023-02-22T02:05:49;4.17;;;3.00;;
42760;SDS011;31672;47.638;19.026;2023-02-22T02:10:54;3.97;;;2.63;;
42760;SDS011;31672;47.638;19.026;2023-02-22T02:15:59;5.80;;;2.90;;
42760;SDS011;31672;47.638;19.026;2023-02-22T02:38:03;6.50;;;3.80;;
42760;SDS011;31672;47.638;19.026;2023-02-22T02:48:35;5.53;;;3.70;;
42760;SDS011;31672;47.638;19.026;2023-02-22T02:53:45;5.40;;;3.43;;
42760;SDS011;31672;47.638;19.026;2023-02-22T02:58:51;5.60;;;3.40;;
42760;SDS011;31672;47.638;19.026;2023-02-22T03:03:59;6.17;;;3.60;;
42760;SDS011;31672;47.638;19.026;2023-02-22T03:10:22;6.47;;;3.50;;
42760;SDS011;31672;47.638;19.026;2023-02-22T03:15:13;5.57;;;3.63;;
42760;SDS011;31672;47.638;19.026;2023-02-22T03:25:48;5.03;;;3.47;;
42760;SDS011;31672;47.638;19.026;2023-02-22T03:31:11;6.33;;;3.80;;
42760;SDS011;31672;47.638;19.026;2023-02-22T03:36:25;6.77;;;3.53;;
42760;SDS011;31672;47.638;19.026;2023-02-22T03:41:34;4.97;;;3.60;;
42760;SDS011;31672;47.638;19.026;2023-02-22T03:46:40;4.70;;;3.87;;
42760;SDS011;31672;47.638;19.026;2023-02-22T03:51:45;6.10;;;4.13;;
42760;SDS011;31672;47.638;19.026;2023-02-22T03:56:52;5.90;;;4.30;;
42760;SDS011;31672;47.638;19.026;2023-02-22T04:01:59;5.23;;;3.60;;
42760;SDS011;31672;47.638;19.026;2023-02-22T04:07:03;5.97;;;4.10;;
42760;SDS011;31672;47.638;19.026;2023-02-22T04:12:06;7.33;;;5.00;;
42760;SDS011;31672;47.638;19.026;2023-02-22T04:17:09;6.67;;;4.30;;
42760;SDS011;31672;47.638;19.026;2023-02-22T04:22:12;6.70;;;4.57;;
42760;SDS011;31672;47.638;19.026;2023-02-22T04:27:15;7.83;;;4.20;;
42760;SDS011;31672;47.638;19.026;2023-02-22T04:32:18;5.57;;;4.03;;
42760;SDS011;31672;47.638;19.026;2023-02-22T04:37:21;5.87;;;4.60;;
42760;SDS011;31672;47.638;19.026;2023-02-22T04:42:24;7.07;;;4.23;;
42760;SDS011;31672;47.638;19.026;2023-02-22T04:47:27;8.47;;;5.20;;
42760;SDS011;31672;47.638;19.026;2023-02-22T04:52:30;8.27;;;5.30;;
42760;SDS011;31672;47.638;19.026;2023-02-22T04:57:33;9.33;;;5.00;;
42760;SDS011;31672;47.638;19.026;2023-02-22T05:02:39;9.03;;;5.43;;
42760;SDS011;31672;47.638;19.026;2023-02-22T05:07:42;6.80;;;4.97;;
42760;SDS011;31672;47.638;19.026;2023-02-22T05:12:45;8.43;;;5.40;;
42760;SDS011;31672;47.638;19.026;2023-02-22T05:17:48;7.77;;;4.70;;
42760;SDS011;31672;47.638;19.026;2023-02-22T05:22:53;7.63;;;4.57;;
42760;SDS011;31672;47.638;19.026;2023-02-22T05:27:58;9.00;;;6.27;;
42760;SDS011;31672;47.638;19.026;2023-02-22T05:33:05;10.03;;;6.77;;
42760;SDS011;31672;47.638;19.026;2023-02-22T05:38:10;9.70;;;6.93;;
42760;SDS011;31672;47.638;19.026;2023-02-22T05:43:16;9.47;;;6.77;;
42760;SDS011;31672;47.638;19.026;2023-02-22T05:48:20;8.23;;;5.97;;
42760;SDS011;31672;47.638;19.026;2023-02-22T05:53:23;10.67;;;6.97;;
42760;SDS011;31672;47.638;19.026;2023-02-22T05:58:26;22.77;;;13.27;;
42760;SDS011;31672;47.638;19.026;2023-02-22T06:03:29;19.07;;;11.07;;
42760;SDS011;31672;47.638;19.026;2023-02-22T06:08:32;14.87;;;9.10;;
42760;SDS011;31672;47.638;19.026;2023-02-22T06:13:35;13.07;;;8.47;;
42760;SDS011;31672;47.638;19.026;2023-02-22T06:18:38;11.03;;;7.30;;
42760;SDS011;31672;47.638;19.026;2023-02-22T06:23:41;8.70;;;6.10;;
42760;SDS011;31672;47.638;19.026;2023-02-22T06:28:45;9.40;;;6.57;;
42760;SDS011;31672;47.638;19.026;2023-02-22T06:33:48;8.43;;;6.23;;
42760;SDS011;31672;47.638;19.026;2023-02-22T06:38:51;8.93;;;5.20;;
42760;SDS011;31672;47.638;19.026;2023-02-22T06:43:54;8.27;;;6.40;;
42760;SDS011;31672;47.638;19.026;2023-02-22T06:48:57;13.87;;;8.10;;
42760;SDS011;31672;47.638;19.026;2023-02-22T06:54:01;8.23;;;5.80;;
42760;SDS011;31672;47.638;19.026;2023-02-22T06:59:05;8.17;;;5.70;;
42760;SDS011;31672;47.638;19.026;2023-02-22T07:04:09;31.50;;;15.27;;
42760;SDS011;31672;47.638;19.026;2023-02-22T07:09:13;12.97;;;7.10;;
42760;SDS011;31672;47.638;19.026;2023-02-22T07:14:17;9.93;;;5.63;;
42760;SDS011;31672;47.638;19.026;2023-02-22T07:19:20;7.27;;;4.90;;
42760;SDS011;31672;47.638;19.026;2023-02-22T07:24:24;7.60;;;5.13;;
42760;SDS011;31672;47.638;19.026;2023-02-22T07:29:29;6.33;;;4.60;;
42760;SDS011;31672;47.638;19.026;2023-02-22T07:34:33;7.03;;;5.00;;
42760;SDS011;31672;47.638;19.026;2023-02-22T07:39:35;6.70;;;4.63;;
42760;SDS011;31672;47.638;19.026;2023-02-22T07:44:39;11.07;;;6.93;;
42760;SDS011;31672;47.638;19.026;2023-02-22T07:49:42;7.53;;;4.00;;
42760;SDS011;31672;47.638;19.026;2023-02-22T07:54:45;6.67;;;3.80;;
42760;SDS011;31672;47.638;19.026;2023-02-22T07:59:49;6.65;;;4.50;;
42760;SDS011;31672;47.638;19.026;2023-02-22T08:04:52;5.15;;;3.97;;
42760;SDS011;31672;47.638;19.026;2023-02-22T08:09:55;5.03;;;3.55;;
42760;SDS011;31672;47.638;19.026;2023-02-22T08:14:58;4.20;;;3.30;;
42760;SDS011;31672;47.638;19.026;2023-02-22T08:20:01;3.25;;;2.67;;
42760;SDS011;31672;47.638;19.026;2023-02-22T08:25:05;5.32;;;3.30;;
42760;SDS011;31672;47.638;19.026;2023-02-22T08:30:10;2.92;;;2.22;;
42760;SDS011;31672;47.638;19.026;2023-02-22T08:35:24;3.97;;;2.80;;
42760;SDS011;31672;47.638;19.026;2023-02-22T08:40:29;6.57;;;4.75;;
42760;SDS011;31672;47.638;19.026;2023-02-22T08:45:36;9.77;;;4.30;;
42760;SDS011;31672;47.638;19.026;2023-02-22T08:50:39;7.65;;;4.75;;
42760;SDS011;31672;47.638;19.026;2023-02-22T08:55:43;5.55;;;4.22;;
42760;SDS011;31672;47.638;19.026;2023-02-22T09:00:46;9.30;;;6.68;;
42760;SDS011;31672;47.638;19.026;2023-02-22T09:05:50;16.48;;;12.32;;
42760;SDS011;31672;47.638;19.026;2023-02-22T09:10:53;31.45;;;21.88;;
42760;SDS011;31672;47.638;19.026;2023-02-22T09:15:56;155.60;;;86.65;;
42760;SDS011;31672;47.638;19.026;2023-02-22T09:20:59;74.43;;;33.33;;
42760;SDS011;31672;47.638;19.026;2023-02-22T09:26:02;43.92;;;20.23;;
42760;SDS011;31672;47.638;19.026;2023-02-22T09:31:05;103.40;;;44.70;;
42760;SDS011;31672;47.638;19.026;2023-02-22T09:36:09;103.22;;;46.67;;
42760;SDS011;31672;47.638;19.026;2023-02-22T09:41:13;17.25;;;9.82;;
42760;SDS011;31672;47.638;19.026;2023-02-22T09:46:29;21.60;;;12.35;;
42760;SDS011;31672;47.638;19.026;2023-02-22T09:56:57;21.17;;;10.93;;
42760;SDS011;31672;47.638;19.026;2023-02-22T10:02:20;11.05;;;6.45;;
42760;SDS011;31672;47.638;19.026;2023-02-22T10:07:34;32.17;;;13.52;;
42760;SDS011;31672;47.638;19.026;2023-02-22T10:24:25;19.00;;;10.18;;
42760;SDS011;31672;47.638;19.026;2023-02-22T10:29:43;52.22;;;20.75;;
42760;SDS011;31672;47.638;19.026;2023-02-22T10:35:27;15.77;;;8.13;;
42760;SDS011;31672;47.638;19.026;2023-02-22T10:40:36;12.50;;;7.85;;
42760;SDS011;31672;47.638;19.026;2023-02-22T10:45:40;14.15;;;6.95;;
42760;SDS011;31672;47.638;19.026;2023-02-22T10:50:44;8.75;;;5.25;;
42760;SDS011;31672;47.638;19.026;2023-02-22T11:01:40;16.10;;;9.77;;
42760;SDS011;31672;47.638;19.026;2023-02-22T11:12:09;11.47;;;7.63;;
42760;SDS011;31672;47.638;19.026;2023-02-22T11:17:25;8.63;;;5.70;;
42760;SDS011;31672;47.638;19.026;2023-02-22T11:22:38;11.20;;;7.07;;
42760;SDS011;31672;47.638;19.026;2023-02-22T11:27:43;11.57;;;7.00;;
42760;SDS011;31672;47.638;19.026;2023-02-22T11:32:49;8.93;;;5.63;;
42760;SDS011;31672;47.638;19.026;2023-02-22T11:43:32;10.00;;;6.33;;
42760;SDS011;31672;47.638;19.026;2023-02-22T11:48:38;8.47;;;6.50;;
42760;SDS011;31672;47.638;19.026;2023-02-22T11:59:52;7.10;;;6.10;;
42760;SDS011;31672;47.638;19.026;2023-02-22T12:11:13;9.25;;;6.88;;
42760;SDS011;31672;47.638;19.026;2023-02-22T12:21:59;11.30;;;7.07;;
42760;SDS011;31672;47.638;19.026;2023-02-22T12:27:10;8.30;;;6.25;;
42760;SDS011;31672;47.638;19.026;2023-02-22T12:32:51;11.63;;;7.23;;
42760;SDS011;31672;47.638;19.026;2023-02-22T12:38:02;12.43;;;7.17;;
42760;SDS011;31672;47.638;19.026;2023-02-22T12:43:52;11.07;;;8.13;;
42760;SDS011;31672;47.638;19.026;2023-02-22T13:00:07;8.77;;;6.37;;
42760;SDS011;31672;47.638;19.026;2023-02-22T13:05:33;10.97;;;6.93;;
42760;SDS011;31672;47.638;19.026;2023-02-22T13:16:06;9.53;;;7.23;;
42760;SDS011;31672;47.638;19.026;2023-02-22T13:21:30;14.90;;;12.10;;
42760;SDS011;31672;47.638;19.026;2023-02-22T13:27:03;11.40;;;9.03;;
42760;SDS011;31672;47.638;19.026;2023-02-22T13:37:40;10.50;;;7.83;;
42760;SDS011;31672;47.638;19.026;2023-02-22T13:58:58;9.80;;;5.60;;
42760;SDS011;31672;47.638;19.026;2023-02-22T14:15:07;11.73;;;4.97;;
42760;SDS011;31672;47.638;19.026;2023-02-22T14:20:31;9.70;;;4.63;;
42760;SDS011;31672;47.638;19.026;2023-02-22T14:25:40;9.07;;;4.93;;
42760;SDS011;31672;47.638;19.026;2023-02-22T14:30:44;10.03;;;4.80;;
42760;SDS011;31672;47.638;19.026;2023-02-22T14:35:48;17.40;;;7.93;;
42760;SDS011;31672;47.638;19.026;2023-02-22T14:40:52;13.47;;;6.10;;
42760;SDS011;31672;47.638;19.026;2023-02-22T14:45:57;8.33;;;4.97;;
42760;SDS011;31672;47.638;19.026;2023-02-22T14:56:33;11.60;;;4.70;;
42760;SDS011;31672;47.638;19.026;2023-02-22T15:02:02;12.13;;;5.20;;
42760;SDS011;31672;47.638;19.026;2023-02-22T15:07:25;11.43;;;5.30;;
42760;SDS011;31672;47.638;19.026;2023-02-22T15:12:31;24.13;;;14.00;;
42760;SDS011;31672;47.638;19.026;2023-02-22T15:17:34;12.03;;;6.33;;
42760;SDS011;31672;47.638;19.026;2023-02-22T15:22:37;8.07;;;5.20;;
42760;SDS011;31672;47.638;19.026;2023-02-22T15:27:42;13.67;;;6.10;;
42760;SDS011;31672;47.638;19.026;2023-02-22T15:32:48;14.67;;;6.70;;
42760;SDS011;31672;47.638;19.026;2023-02-22T15:43:16;15.57;;;7.40;;
42760;SDS011;31672;47.638;19.026;2023-02-22T15:48:26;20.67;;;9.00;;
42760;SDS011;31672;47.638;19.026;2023-02-22T15:53:35;19.27;;;8.47;;
42760;SDS011;31672;47.638;19.026;2023-02-22T15:58:51;13.23;;;7.17;;
42760;SDS011;31672;47.638;19.026;2023-02-22T16:04:22;10.47;;;6.60;;
42760;SDS011;31672;47.638;19.026;2023-02-22T16:09:30;17.43;;;7.00;;
42760;SDS011;31672;47.638;19.026;2023-02-22T16:19:38;18.33;;;9.47;;
42760;SDS011;31672;47.638;19.026;2023-02-22T16:24:43;32.07;;;19.03;;
42760;SDS011;31672;47.638;19.026;2023-02-22T16:30:04;24.47;;;13.30;;
42760;SDS011;31672;47.638;19.026;2023-02-22T16:35:27;32.03;;;17.93;;
42760;SDS011;31672;47.638;19.026;2023-02-22T16:40:34;28.90;;;13.50;;
42760;SDS011;31672;47.638;19.026;2023-02-22T16:45:41;16.95;;;8.50;;
42760;SDS011;31672;47.638;19.026;2023-02-22T16:50:45;24.67;;;11.50;;
42760;SDS011;31672;47.638;19.026;2023-02-22T16:55:53;25.93;;;11.27;;
42760;SDS011;31672;47.638;19.026;2023-02-22T17:01:01;20.37;;;9.00;;
42760;SDS011;31672;47.638;19.026;2023-02-22T17:06:05;30.37;;;13.60;;
42760;SDS011;31672;47.638;19.026;2023-02-22T17:11:08;33.60;;;13.33;;
42760;SDS011;31672;47.638;19.026;2023-02-22T17:16:15;31.33;;;14.23;;
42760;SDS011;31672;47.638;19.026;2023-02-22T17:21:19;50.70;;;19.97;;
42760;SDS011;31672;47.638;19.026;2023-02-22T17:26:23;41.47;;;21.27;;
42760;SDS011;31672;47.638;19.026;2023-02-22T17:31:27;29.83;;;16.23;;
42760;SDS011;31672;47.638;19.026;2023-02-22T17:36:32;40.90;;;16.83;;
42760;SDS011;31672;47.638;19.026;2023-02-22T17:41:39;28.37;;;13.47;;
42760;SDS011;31672;47.638;19.026;2023-02-22T17:46:42;36.30;;;18.67;;
42760;SDS011;31672;47.638;19.026;2023-02-22T17:51:46;34.93;;;16.00;;
42760;SDS011;31672;47.638;19.026;2023-02-22T17:56:51;43.03;;;18.57;;
42760;SDS011;31672;47.638;19.026;2023-02-22T18:01:55;39.07;;;18.50;;
42760;SDS011;31672;47.638;19.026;2023-02-22T18:06:57;40.77;;;19.50;;
42760;SDS011;31672;47.638;19.026;2023-02-22T18:12:00;28.80;;;17.03;;
42760;SDS011;31672;47.638;19.026;2023-02-22T18:17:03;25.43;;;14.90;;
42760;SDS011;31672;47.638;19.026;2023-02-22T18:22:06;29.37;;;15.27;;
42760;SDS011;31672;47.638;19.026;2023-02-22T18:27:09;27.90;;;14.23;;
42760;SDS011;31672;47.638;19.026;2023-02-22T18:32:13;32.67;;;17.63;;
42760;SDS011;31672;47.638;19.026;2023-02-22T18:37:16;30.20;;;15.50;;
42760;SDS011;31672;47.638;19.026;2023-02-22T18:42:21;24.40;;;13.67;;
42760;SDS011;31672;47.638;19.026;2023-02-22T18:47:26;21.57;;;12.37;;
42760;SDS011;31672;47.638;19.026;2023-02-22T18:52:29;23.80;;;14.00;;
42760;SDS011;31672;47.638;19.026;2023-02-22T18:57:33;29.70;;;14.10;;
42760;SDS011;31672;47.638;19.026;2023-02-22T19:02:37;28.17;;;15.53;;
42760;SDS011;31672;47.638;19.026;2023-02-22T19:07:40;147.87;;;59.83;;
42760;SDS011;31672;47.638;19.026;2023-02-22T19:12:43;93.30;;;39.63;;
42760;SDS011;31672;47.638;19.026;2023-02-22T19:17:49;52.57;;;24.87;;
42760;SDS011;31672;47.638;19.026;2023-02-22T19:22:52;60.63;;;30.17;;
42760;SDS011;31672;47.638;19.026;2023-02-22T19:27:55;50.53;;;23.73;;
42760;SDS011;31672;47.638;19.026;2023-02-22T19:32:58;38.77;;;19.80;;
42760;SDS011;31672;47.638;19.026;2023-02-22T19:38:03;31.27;;;15.80;;
42760;SDS011;31672;47.638;19.026;2023-02-22T19:43:06;29.57;;;14.50;;
42760;SDS011;31672;47.638;19.026;2023-02-22T19:48:11;39.93;;;18.20;;
42760;SDS011;31672;47.638;19.026;2023-02-22T19:53:15;30.07;;;13.27;;
42760;SDS011;31672;47.638;19.026;2023-02-22T19:58:19;29.13;;;12.10;;
42760;SDS011;31672;47.638;19.026;2023-02-22T20:03:23;28.03;;;12.57;;
42760;SDS011;31672;47.638;19.026;2023-02-22T20:08:27;30.97;;;14.47;;
42760;SDS011;31672;47.638;19.026;2023-02-22T20:13:30;45.50;;;15.07;;
42760;SDS011;31672;47.638;19.026;2023-02-22T20:18:34;31.00;;;12.90;;
42760;SDS011;31672;47.638;19.026;2023-02-22T20:23:37;25.87;;;13.27;;
42760;SDS011;31672;47.638;19.026;2023-02-22T20:28:42;25.27;;;13.07;;
42760;SDS011;31672;47.638;19.026;2023-02-22T20:33:50;31.47;;;13.47;;
42760;SDS011;31672;47.638;19.026;2023-02-22T20:38:56;25.37;;;11.57;;
42760;SDS011;31672;47.638;19.026;2023-02-22T20:44:01;25.30;;;10.30;;
42760;SDS011;31672;47.638;19.026;2023-02-22T20:49:08;19.53;;;9.60;;
42760;SDS011;31672;47.638;19.026;2023-02-22T20:54:16;15.17;;;8.67;;
42760;SDS011;31672;47.638;19.026;2023-02-22T20:59:20;29.13;;;13.67;;
42760;SDS011;31672;47.638;19.026;2023-02-22T21:04:23;22.87;;;11.93;;
42760;SDS011;31672;47.638;19.026;2023-02-22T21:09:26;19.03;;;11.50;;
42760;SDS011;31672;47.638;19.026;2023-02-22T21:14:29;24.33;;;11.03;;
42760;SDS011;31672;47.638;19.026;2023-02-22T21:19:33;19.57;;;10.57;;
42760;SDS011;31672;47.638;19.026;2023-02-22T21:24:37;19.13;;;9.80;;
42760;SDS011;31672;47.638;19.026;2023-02-22T21:29:40;36.17;;;17.50;;
42760;SDS011;31672;47.638;19.026;2023-02-22T21:34:44;24.33;;;12.23;;
42760;SDS011;31672;47.638;19.026;2023-02-22T21:39:47;18.80;;;9.80;;
42760;SDS011;31672;47.638;19.026;2023-02-22T21:44:50;19.87;;;10.53;;
42760;SDS011;31672;47.638;19.026;2023-02-22T21:49:57;19.03;;;10.33;;
42760;SDS011;31672;47.638;19.026;2023-02-22T21:55:00;19.80;;;9.57;;
42760;SDS011;31672;47.638;19.026;2023-02-22T22:00:03;18.93;;;9.20;;
42760;SDS011;31672;47.638;19.026;2023-02-22T22:05:19;23.23;;;10.37;;
42760;SDS011;31672;47.638;19.026;2023-02-22T22:10:35;22.60;;;10.83;;
42760;SDS011;31672;47.638;19.026;2023-02-22T22:15:38;25.30;;;14.50;;
42760;SDS011;31672;47.638;19.026;2023-02-22T22:20:41;26.77;;;15.27;;
42760;SDS011;31672;47.638;19.026;2023-02-22T22:25:46;40.30;;;20.00;;
42760;SDS011;31672;47.638;19.026;2023-02-22T22:30:52;60.20;;;28.30;;
42760;SDS011;31672;47.638;19.026;2023-02-22T22:35:55;34.30;;;17.63;;
42760;SDS011;31672;47.638;19.026;2023-02-22T22:40:59;28.83;;;15.40;;
42760;SDS011;31672;47.638;19.026;2023-02-22T22:46:03;26.13;;;13.47;;
42760;SDS011;31672;47.638;19.026;2023-02-22T22:51:09;30.20;;;14.87;;
42760;SDS011;31672;47.638;19.026;2023-02-22T22:56:20;34.77;;;18.10;;
42760;SDS011;31672;47.638;19.026;2023-02-22T23:01:28;34.47;;;15.80;;
42760;SDS011;31672;47.638;19.026;2023-02-22T23:06:36;28.17;;;14.67;;
42760;SDS011;31672;47.638;19.026;2023-02-22T23:11:46;33.07;;;15.17;;
42760;SDS011;31672;47.638;19.026;2023-02-22T23:16:58;29.90;;;13.57;;
42760;SDS011;31672;47.638;19.026;2023-02-22T23:22:05;28.27;;;15.00;;
42760;SDS011;31672;47.638;19.026;2023-02-22T23:27:08;21.80;;;13.13;;
42760;SDS011;31672;47.638;19.026;2023-02-22T23:32:12;26.23;;;14.13;;
42760;SDS011;31672;47.638;19.026;2023-02-22T23:37:15;27.60;;;13.17;;
42760;SDS011;31672;47.638;19.026;2023-02-22T23:42:21;22.23;;;11.47;;
42760;SDS011;31672;47.638;19.026;2023-02-22T23:47:24;25.77;;;13.33;;
42760;SDS011;31672;47.638;19.026;2023-02-22T23:52:32;31.20;;;14.73;;
42760;SDS011;31672;47.638;19.026;2023-02-22T23:57:38;39.03;;;20.43;;
